createdAt,value
2023-04-28T00:01:38.071Z,9.96
2023-04-28T00:04:05.296Z,9.84
2023-04-28T00:06:32.165Z,9.81
2023-04-28T00:08:58.897Z,9.90
2023-04-28T00:11:25.595Z,9.85
2023-04-28T00:13:52.167Z,9.87
2023-04-28T00:16:18.906Z,9.87
2023-04-28T00:18:45.466Z,9.93
2023-04-28T00:21:12.124Z,9.72
2023-04-28T00:23:38.657Z,9.65
2023-04-28T00:26:06.160Z,9.75
2023-04-28T00:28:34.701Z,9.75
2023-04-28T00:31:02.303Z,9.60
2023-04-28T00:33:28.912Z,9.65
2023-04-28T00:36:00.620Z,9.79
2023-04-28T00:38:27.274Z,9.87
2023-04-28T00:40:53.967Z,9.79
2023-04-28T00:43:20.610Z,9.77
2023-04-28T00:45:47.265Z,9.81
2023-04-28T00:48:14.222Z,9.69
2023-04-28T00:50:41.792Z,9.76
2023-04-28T00:53:08.609Z,9.64
2023-04-28T00:55:35.753Z,9.65
2023-04-28T00:58:02.614Z,9.59
2023-04-28T01:00:29.307Z,9.73
2023-04-28T01:02:57.756Z,9.79
2023-04-28T01:05:29.558Z,9.77
2023-04-28T01:07:56.795Z,9.76
2023-04-28T01:10:23.420Z,9.77
2023-04-28T01:12:49.981Z,9.70
2023-04-28T01:15:19.044Z,9.61
2023-04-28T01:17:47.445Z,9.70
2023-04-28T01:20:15.166Z,9.58
2023-04-28T01:22:42.470Z,9.66
2023-04-28T01:25:09.765Z,9.68
2023-04-28T01:27:39.376Z,9.59
2023-04-28T01:30:06.823Z,9.72
2023-04-28T01:32:33.707Z,9.67
2023-04-28T01:35:00.334Z,9.75
2023-04-28T01:37:26.929Z,9.81
2023-04-28T01:39:54.132Z,9.78
2023-04-28T01:42:20.970Z,9.80
2023-04-28T01:44:47.682Z,9.84
2023-04-28T01:47:14.369Z,9.89
2023-04-28T01:49:40.898Z,9.82
2023-04-28T01:52:07.918Z,9.77
2023-04-28T01:54:35.121Z,9.78
2023-04-28T01:57:03.249Z,9.81
2023-04-28T01:59:31.112Z,9.85
2023-04-28T02:01:57.935Z,9.83
2023-04-28T02:04:25.141Z,9.82
2023-04-28T02:06:51.820Z,9.85
2023-04-28T02:09:18.576Z,9.87
2023-04-28T02:11:45.266Z,9.86
2023-04-28T02:14:11.853Z,9.92
2023-04-28T02:16:38.470Z,9.89
2023-04-28T02:19:05.065Z,9.94
2023-04-28T02:21:31.961Z,9.94
2023-04-28T02:23:58.828Z,9.92
2023-04-28T02:26:25.891Z,9.83
2023-04-28T02:28:52.546Z,10.04
2023-04-28T02:31:19.204Z,10.08
2023-04-28T02:33:46.283Z,9.94
2023-04-28T02:36:13.239Z,10.04
2023-04-28T02:38:41.737Z,10.06
2023-04-28T02:41:11.761Z,10.06
2023-04-28T02:43:38.425Z,10.06
2023-04-28T02:46:05.703Z,10.03
2023-04-28T02:48:33.960Z,10.09
2023-04-28T02:51:00.558Z,10.13
2023-04-28T02:53:27.412Z,10.01
2023-04-28T02:55:54.424Z,10.05
2023-04-28T02:58:21.116Z,10.07
2023-04-28T03:00:48.136Z,9.97
2023-04-28T03:03:16.260Z,10.16
2023-04-28T03:05:43.183Z,10.17
2023-04-28T03:08:10.110Z,10.13
2023-04-28T03:10:36.940Z,10.13
2023-04-28T03:13:04.543Z,10.08
2023-04-28T03:15:31.166Z,10.11
2023-04-28T03:17:58.087Z,10.25
2023-04-28T03:20:24.770Z,10.20
2023-04-28T03:22:51.365Z,10.18
2023-04-28T03:25:18.490Z,10.17
2023-04-28T03:27:50.986Z,10.12
2023-04-28T03:30:17.852Z,10.13
2023-04-28T03:32:44.551Z,10.16
2023-04-28T03:35:14.249Z,10.18
2023-04-28T03:37:41.540Z,10.24
2023-04-28T03:40:08.848Z,10.20
2023-04-28T03:42:53.210Z,10.06
2023-04-28T03:45:33.677Z,10.20
2023-04-28T03:48:00.500Z,10.17
2023-04-28T03:50:27.105Z,10.26
2023-04-28T03:52:54.783Z,10.20
2023-04-28T03:55:21.956Z,10.14
2023-04-28T03:57:48.664Z,10.23
2023-04-28T04:00:16.475Z,10.16
2023-04-28T04:02:45.341Z,10.30
2023-04-28T04:05:15.473Z,10.26
2023-04-28T04:07:42.306Z,10.25
2023-04-28T04:10:11.830Z,10.33
2023-04-28T04:12:41.898Z,10.43
2023-04-28T04:15:09.189Z,10.33
2023-04-28T04:17:37.067Z,10.14
2023-04-28T04:20:03.856Z,10.26
2023-04-28T04:22:30.440Z,10.31
2023-04-28T04:24:57.031Z,10.36
2023-04-28T04:27:25.841Z,10.33
2023-04-28T04:29:52.459Z,10.30
2023-04-28T04:32:19.021Z,10.18
2023-04-28T04:34:45.775Z,10.35
2023-04-28T04:37:13.197Z,10.31
2023-04-28T04:39:50.164Z,10.38
2023-04-28T04:42:24.296Z,10.27
2023-04-28T04:45:03.429Z,10.32
2023-04-28T04:47:31.005Z,10.27
2023-04-28T04:49:57.999Z,10.38
2023-04-28T04:52:25.036Z,10.33
2023-04-28T04:54:52.008Z,10.26
2023-04-28T04:57:18.799Z,10.20
2023-04-28T05:00:06.162Z,10.22
2023-04-28T05:02:32.829Z,10.30
2023-04-28T05:05:08.535Z,10.35
2023-04-28T05:07:48.269Z,10.34
2023-04-28T05:10:15.077Z,10.53
2023-04-28T05:12:45.614Z,10.49
2023-04-28T05:15:14.613Z,10.39
2023-04-28T05:17:50.912Z,10.38
2023-04-28T05:20:17.878Z,10.32
2023-04-28T05:22:44.556Z,10.33
2023-04-28T05:25:13.804Z,10.43
2023-04-28T05:27:41.142Z,10.50
2023-04-28T05:30:10.563Z,10.56
2023-04-28T05:32:38.272Z,10.54
2023-04-28T05:35:05.894Z,10.66
2023-04-28T05:37:32.451Z,10.68
2023-04-28T05:39:59.125Z,10.59
2023-04-28T05:42:25.946Z,10.61
2023-04-28T05:44:52.668Z,10.72
2023-04-28T05:47:19.269Z,10.48
2023-04-28T05:49:47.883Z,10.56
2023-04-28T05:52:14.525Z,10.52
2023-04-28T05:54:41.170Z,10.60
2023-04-28T05:57:08.139Z,10.66
2023-04-28T05:59:35.144Z,10.74
2023-04-28T06:02:02.417Z,10.73
2023-04-28T06:04:29.675Z,10.81
2023-04-28T06:06:56.994Z,10.71
2023-04-28T06:09:23.885Z,10.59
2023-04-28T06:11:52.819Z,10.64
2023-04-28T06:14:19.948Z,10.76
2023-04-28T06:16:47.543Z,10.85
2023-04-28T06:19:15.327Z,10.93
2023-04-28T06:21:41.997Z,10.96
2023-04-28T06:24:08.583Z,10.70
2023-04-28T06:26:35.734Z,10.83
2023-04-28T06:29:02.376Z,10.78
2023-04-28T06:31:29.930Z,10.87
2023-04-28T06:33:56.674Z,11.01
2023-04-28T06:36:24.243Z,11.08
2023-04-28T06:38:51.486Z,11.18
2023-04-28T06:41:18.093Z,11.25
2023-04-28T06:43:48.067Z,11.25
2023-04-28T06:46:20.099Z,11.22
2023-04-28T06:48:46.919Z,11.14
2023-04-28T06:51:16.644Z,11.13
2023-04-28T06:53:43.398Z,11.24
2023-04-28T06:56:11.609Z,11.11
2023-04-28T06:58:38.462Z,11.25
2023-04-28T07:01:05.793Z,11.25
2023-04-28T07:03:32.742Z,11.25
2023-04-28T07:05:59.662Z,11.30
2023-04-28T07:08:26.804Z,11.41
2023-04-28T07:10:53.329Z,11.33
2023-04-28T07:13:19.924Z,11.34
2023-04-28T07:15:46.617Z,11.35
2023-04-28T07:18:13.289Z,11.32
2023-04-28T07:20:39.964Z,11.31
2023-04-28T07:23:06.582Z,11.35
2023-04-28T07:25:33.432Z,11.43
2023-04-28T07:28:03.107Z,11.42
2023-04-28T07:30:29.621Z,11.57
2023-04-28T07:32:56.360Z,11.56
2023-04-28T07:35:23.715Z,11.66
2023-04-28T07:37:50.595Z,11.84
2023-04-28T07:40:17.898Z,11.76
2023-04-28T07:42:45.326Z,11.77
2023-04-28T07:45:12.362Z,11.89
2023-04-28T07:47:39.000Z,11.91
2023-04-28T07:50:06.943Z,11.89
2023-04-28T07:52:34.251Z,12.12
2023-04-28T07:55:02.623Z,12.09
2023-04-28T07:57:29.380Z,12.15
2023-04-28T07:59:56.172Z,12.17
2023-04-28T08:02:23.015Z,12.25
2023-04-28T08:04:49.788Z,12.47
2023-04-28T08:07:16.572Z,12.60
2023-04-28T08:09:47.159Z,12.63
2023-04-28T08:12:14.878Z,12.79
2023-04-28T08:14:41.594Z,12.82
2023-04-28T08:17:11.616Z,12.71
2023-04-28T08:19:38.225Z,12.89
2023-04-28T08:22:07.805Z,13.08
2023-04-28T08:24:34.546Z,13.08
2023-04-28T08:27:04.229Z,12.95
2023-04-28T08:29:32.085Z,13.16
2023-04-28T08:31:59.327Z,13.39
2023-04-28T08:34:25.991Z,13.45
2023-04-28T08:36:53.316Z,13.54
2023-04-28T08:39:20.792Z,13.49
2023-04-28T08:41:47.479Z,13.41
2023-04-28T08:44:14.335Z,13.49
2023-04-28T08:46:42.241Z,13.46
2023-04-28T08:49:14.600Z,13.49
2023-04-28T08:52:05.210Z,13.37
2023-04-28T08:54:33.551Z,13.43
2023-04-28T08:57:01.216Z,13.45
2023-04-28T08:59:28.130Z,13.49
2023-04-28T09:01:54.876Z,13.51
2023-04-28T09:04:22.297Z,13.39
2023-04-28T09:06:49.209Z,13.46
2023-04-28T09:09:27.448Z,13.41
2023-04-28T09:12:02.723Z,13.27
2023-04-28T09:14:31.028Z,13.13
2023-04-28T09:16:57.639Z,13.24
2023-04-28T09:19:24.776Z,13.23
2023-04-28T09:21:54.464Z,13.24
2023-04-28T09:24:34.448Z,13.30
2023-04-28T09:27:02.862Z,13.32
2023-04-28T09:29:33.823Z,13.04
2023-04-28T09:32:12.835Z,13.14
2023-04-28T09:34:45.758Z,13.34
2023-04-28T09:37:17.259Z,13.20
2023-04-28T09:39:49.350Z,13.21
2023-04-28T09:42:34.602Z,13.47
2023-04-28T09:45:10.136Z,13.52
2023-04-28T09:47:48.142Z,13.62
2023-04-28T09:50:17.507Z,13.47
2023-04-28T09:52:46.904Z,13.64
2023-04-28T09:55:13.729Z,13.91
2023-04-28T09:57:40.623Z,14.30
2023-04-28T10:00:09.460Z,14.54
2023-04-28T10:05:10.449Z,14.68
2023-04-28T10:07:40.593Z,14.73
2023-04-28T10:10:08.452Z,14.95
2023-04-28T10:12:38.375Z,15.19
2023-04-28T10:15:06.361Z,15.30
2023-04-28T10:17:33.830Z,15.07
2023-04-28T10:20:08.737Z,15.01
2023-04-28T10:22:57.330Z,14.79
2023-04-28T10:25:30.064Z,15.00
2023-04-28T10:27:58.612Z,15.02
2023-04-28T10:30:29.651Z,14.99
2023-04-28T10:33:06.303Z,15.23
2023-04-28T10:35:33.249Z,15.16
2023-04-28T10:38:05.652Z,15.09
2023-04-28T10:40:39.934Z,15.38
2023-04-28T10:43:08.692Z,15.25
2023-04-28T10:45:57.775Z,15.17
2023-04-28T10:48:34.027Z,15.25
2023-04-28T10:51:03.966Z,15.32
2023-04-28T10:53:43.293Z,15.19
2023-04-28T10:56:26.874Z,15.36
2023-04-28T10:58:58.153Z,15.15
2023-04-28T11:01:29.718Z,15.47
2023-04-28T11:04:18.370Z,15.67
2023-04-28T11:07:12.955Z,15.57
2023-04-28T11:09:40.343Z,15.78
2023-04-28T11:12:10.577Z,15.65
2023-04-28T11:14:40.536Z,15.68
2023-04-28T11:17:13.604Z,15.42
2023-04-28T11:19:48.722Z,15.63
2023-04-28T11:22:15.628Z,15.74
2023-04-28T11:24:55.187Z,16.12
2023-04-28T11:27:26.854Z,16.36
2023-04-28T11:29:54.052Z,16.38
2023-04-28T11:32:49.637Z,16.12
2023-04-28T11:35:16.319Z,16.33
2023-04-28T11:37:42.934Z,16.52
2023-04-28T11:40:13.441Z,16.26
2023-04-28T11:42:49.656Z,16.25
2023-04-28T11:45:16.467Z,16.10
2023-04-28T11:47:43.432Z,16.40
2023-04-28T11:50:10.279Z,16.64
2023-04-28T11:52:37.463Z,16.51
2023-04-28T11:55:04.917Z,16.76
2023-04-28T11:57:31.479Z,16.78
2023-04-28T12:00:15.433Z,16.99
2023-04-28T12:02:42.276Z,17.16
2023-04-28T12:05:10.920Z,16.90
2023-04-28T12:07:45.533Z,16.95
2023-04-28T12:10:17.032Z,16.94
2023-04-28T12:12:51.904Z,17.21
2023-04-28T12:15:21.217Z,17.05
2023-04-28T12:17:50.763Z,17.32
2023-04-28T12:20:38.468Z,17.46
2023-04-28T12:23:06.179Z,17.51
2023-04-28T12:25:34.101Z,17.36
2023-04-28T12:28:05.659Z,17.46
2023-04-28T12:30:34.505Z,17.76
2023-04-28T12:33:01.372Z,17.97
2023-04-28T12:35:29.300Z,18.17
2023-04-28T12:37:56.993Z,17.75
2023-04-28T12:40:24.578Z,17.59
2023-04-28T12:42:51.494Z,17.89
2023-04-28T12:45:18.279Z,18.11
2023-04-28T12:47:44.986Z,17.87
2023-04-28T12:50:12.068Z,17.74
2023-04-28T12:52:38.654Z,17.84
2023-04-28T12:55:05.683Z,17.86
2023-04-28T12:57:32.410Z,17.90
2023-04-28T12:59:59.014Z,17.83
2023-04-28T13:02:25.988Z,17.92
2023-04-28T13:04:52.957Z,17.96
2023-04-28T13:07:19.831Z,17.91
2023-04-28T13:09:47.601Z,17.68
2023-04-28T13:12:14.941Z,17.69
2023-04-28T13:14:42.130Z,17.61
2023-04-28T13:17:10.109Z,17.65
2023-04-28T13:19:37.391Z,17.67
2023-04-28T13:22:05.903Z,17.67
2023-04-28T13:24:35.761Z,17.42
2023-04-28T13:27:04.011Z,17.45
2023-04-28T13:29:30.634Z,17.52
2023-04-28T13:31:57.317Z,17.58
2023-04-28T13:34:25.488Z,17.54
2023-04-28T13:36:53.991Z,17.29
2023-04-28T13:39:31.751Z,17.41
2023-04-28T13:42:00.210Z,17.17
2023-04-28T13:44:26.861Z,17.35
2023-04-28T13:46:53.760Z,17.41
2023-04-28T13:49:20.410Z,17.09
2023-04-28T13:51:47.409Z,17.09
2023-04-28T13:54:14.193Z,17.05
2023-04-28T13:56:41.552Z,16.92
2023-04-28T13:59:08.183Z,16.50
2023-04-28T14:01:34.849Z,16.82
2023-04-28T14:04:02.043Z,16.80
2023-04-28T14:06:28.990Z,16.59
2023-04-28T14:08:55.650Z,16.63
2023-04-28T14:11:22.760Z,16.57
2023-04-28T14:13:49.421Z,16.42
2023-04-28T14:16:16.508Z,16.25
2023-04-28T14:18:43.185Z,16.35
2023-04-28T14:21:09.987Z,16.38
2023-04-28T14:23:36.665Z,16.55
2023-04-28T14:26:03.568Z,16.55
2023-04-28T14:28:30.154Z,16.44
2023-04-28T14:30:56.884Z,16.48
2023-04-28T14:33:23.656Z,16.46
2023-04-28T14:35:50.232Z,16.51
2023-04-28T14:38:16.910Z,16.38
2023-04-28T14:40:43.535Z,16.41
2023-04-28T14:43:10.116Z,16.37
2023-04-28T14:45:38.191Z,16.29
2023-04-28T14:48:06.765Z,16.47
2023-04-28T14:50:33.554Z,16.45
2023-04-28T14:53:05.334Z,16.44
2023-04-28T14:55:32.041Z,16.47
2023-04-28T14:57:58.898Z,16.24
2023-04-28T15:00:25.533Z,16.07
2023-04-28T15:02:52.240Z,16.12
2023-04-28T15:05:19.478Z,16.38
2023-04-28T15:07:46.114Z,16.52
2023-04-28T15:10:12.761Z,16.79
2023-04-28T15:12:40.100Z,16.68
2023-04-28T15:15:07.884Z,16.76
2023-04-28T15:17:34.678Z,16.78
2023-04-28T15:20:01.392Z,16.90
2023-04-28T15:22:27.938Z,17.00
2023-04-28T15:24:55.795Z,17.10
2023-04-28T15:27:23.113Z,17.13
2023-04-28T15:29:50.478Z,17.04
2023-04-28T15:32:17.582Z,16.90
2023-04-28T15:34:44.215Z,16.94
2023-04-28T15:37:44.525Z,17.07
2023-04-28T15:40:16.596Z,17.10
2023-04-28T15:42:48.867Z,17.11
2023-04-28T15:45:16.660Z,17.14
2023-04-28T15:47:43.851Z,16.98
2023-04-28T15:50:11.646Z,16.91
2023-04-28T15:52:40.693Z,16.94
2023-04-28T15:55:08.445Z,17.00
2023-04-28T15:57:36.576Z,17.17
2023-04-28T16:00:03.517Z,16.97
2023-04-28T16:02:34.934Z,16.93
2023-04-28T16:05:03.594Z,17.01
2023-04-28T16:07:37.694Z,17.11
2023-04-28T16:10:08.513Z,17.05
2023-04-28T16:12:36.248Z,16.78
2023-04-28T16:15:03.955Z,16.81
2023-04-28T16:17:30.750Z,16.81
2023-04-28T16:20:00.009Z,16.39
2023-04-28T16:22:41.325Z,16.59
2023-04-28T16:25:29.752Z,16.53
2023-04-28T16:28:04.500Z,16.59
2023-04-28T16:30:41.891Z,16.42
2023-04-28T16:33:18.836Z,16.59
2023-04-28T16:35:59.516Z,16.70
2023-04-28T16:38:29.215Z,16.57
2023-04-28T16:41:01.337Z,16.56
2023-04-28T16:43:32.756Z,16.84
2023-04-28T16:46:24.097Z,16.93
2023-04-28T16:48:59.312Z,16.92
2023-04-28T16:51:33.056Z,16.91
2023-04-28T16:54:04.753Z,16.88
2023-04-28T16:56:57.548Z,16.84
2023-04-28T16:59:31.823Z,16.81
2023-04-28T17:02:10.104Z,16.54
2023-04-28T17:04:41.824Z,16.45
2023-04-28T17:07:28.999Z,16.73
2023-04-28T17:10:08.505Z,16.45
2023-04-28T17:12:46.146Z,16.52
2023-04-28T17:15:24.658Z,16.38
2023-04-28T17:17:54.481Z,16.26
2023-04-28T17:20:33.941Z,16.18
2023-04-28T17:23:11.237Z,16.16
2023-04-28T17:25:44.194Z,15.95
2023-04-28T17:28:19.813Z,16.06
2023-04-28T17:31:01.606Z,16.15
2023-04-28T17:33:34.923Z,16.06
2023-04-28T17:36:10.599Z,15.76
2023-04-28T17:39:01.445Z,15.75
2023-04-28T17:44:16.460Z,15.89
2023-04-28T17:47:18.875Z,15.85
2023-04-28T17:50:18.314Z,15.56
2023-04-28T17:52:52.511Z,15.75
2023-04-28T17:55:38.385Z,15.61
2023-04-28T17:58:18.879Z,15.40
2023-04-28T18:00:59.639Z,15.23
2023-04-28T18:03:31.356Z,15.08
2023-04-28T18:06:11.781Z,14.96
2023-04-28T18:08:45.457Z,14.92
2023-04-28T18:11:30.327Z,14.97
2023-04-28T18:17:07.112Z,15.16
2023-04-28T18:19:36.559Z,15.20
2023-04-28T18:22:23.409Z,14.97
2023-04-28T18:24:56.654Z,15.08
2023-04-28T18:27:28.011Z,15.18
2023-04-28T18:30:00.371Z,14.88
2023-04-28T18:32:44.513Z,14.86
2023-04-28T18:35:28.240Z,14.88
2023-04-28T18:38:01.209Z,14.90
2023-04-28T18:40:45.904Z,15.02
2023-04-28T18:43:30.384Z,14.92
2023-04-28T18:46:07.130Z,14.90
2023-04-28T18:48:42.762Z,14.95
2023-04-28T18:51:24.044Z,14.82
2023-04-28T18:54:04.797Z,15.02
2023-04-28T18:56:45.623Z,14.97
2023-04-28T18:59:31.410Z,15.07
2023-04-28T19:01:58.621Z,15.03
2023-04-28T19:04:28.622Z,14.71
2023-04-28T19:07:01.166Z,14.77
2023-04-28T19:09:27.902Z,14.81
2023-04-28T19:11:54.507Z,14.93
2023-04-28T19:14:21.078Z,14.74
2023-04-28T19:16:47.733Z,14.71
2023-04-28T19:19:14.479Z,14.69
2023-04-28T19:21:42.680Z,14.61
2023-04-28T19:24:09.436Z,14.61
2023-04-28T19:26:36.052Z,14.68
2023-04-28T19:29:02.674Z,14.77
2023-04-28T19:31:29.450Z,14.78
2023-04-28T19:33:56.702Z,14.65
2023-04-28T19:36:24.037Z,14.72
2023-04-28T19:38:50.853Z,14.70
2023-04-28T19:41:17.580Z,14.77
2023-04-28T19:43:44.176Z,14.74
2023-04-28T19:46:10.794Z,14.59
2023-04-28T19:48:37.520Z,14.58
2023-04-28T19:51:04.217Z,14.70
2023-04-28T19:53:30.811Z,14.51
2023-04-28T19:56:00.874Z,14.44
2023-04-28T19:58:27.755Z,14.55
2023-04-28T20:00:54.296Z,14.44
2023-04-28T20:03:21.208Z,14.55
2023-04-28T20:05:47.881Z,14.68
2023-04-28T20:08:14.526Z,14.43
2023-04-28T20:10:41.306Z,14.42
2023-04-28T20:13:08.061Z,14.47
2023-04-28T20:15:34.753Z,14.28
2023-04-28T20:18:01.724Z,14.30
2023-04-28T20:20:28.798Z,14.33
2023-04-28T20:22:55.387Z,14.17
2023-04-28T20:25:22.723Z,14.09
2023-04-28T20:27:49.561Z,14.15
2023-04-28T20:30:16.390Z,14.17
2023-04-28T20:32:43.027Z,14.07
2023-04-28T20:35:10.010Z,14.09
2023-04-28T20:37:36.705Z,14.21
2023-04-28T20:40:04.643Z,14.05
2023-04-28T20:42:31.254Z,13.95
2023-04-28T20:44:58.207Z,13.84
2023-04-28T20:47:24.871Z,14.01
2023-04-28T20:49:51.755Z,14.11
2023-04-28T20:52:18.541Z,14.36
2023-04-28T20:54:45.768Z,14.11
2023-04-28T20:57:12.391Z,14.01
2023-04-28T20:59:39.015Z,14.10
2023-04-28T21:02:05.823Z,14.11
2023-04-28T21:04:32.885Z,14.13
2023-04-28T21:06:59.529Z,13.96
2023-04-28T21:09:26.678Z,13.95
2023-04-28T21:11:53.566Z,13.84
2023-04-28T21:14:20.263Z,14.02
2023-04-28T21:16:46.895Z,13.95
2023-04-28T21:19:13.520Z,14.08
2023-04-28T21:21:40.080Z,13.96
2023-04-28T21:24:08.124Z,14.07
2023-04-28T21:26:35.829Z,14.04
2023-04-28T21:29:02.889Z,13.96
2023-04-28T21:31:30.583Z,14.07
2023-04-28T21:33:57.616Z,13.90
2023-04-28T21:36:24.378Z,13.91
2023-04-28T21:38:50.957Z,13.95
2023-04-28T21:41:17.660Z,13.99
2023-04-28T21:43:44.306Z,14.05
2023-04-28T21:46:11.330Z,14.05
2023-04-28T21:48:38.563Z,14.05
2023-04-28T21:51:05.524Z,14.15
2023-04-28T21:53:32.101Z,14.03
2023-04-28T21:55:58.719Z,14.06
2023-04-28T21:58:25.331Z,13.99
2023-04-28T22:00:52.246Z,14.03
2023-04-28T22:03:19.089Z,14.03
2023-04-28T22:05:45.938Z,14.06
2023-04-28T22:08:17.031Z,13.96
2023-04-28T22:10:45.517Z,14.06
2023-04-28T22:13:13.015Z,14.12
2023-04-28T22:15:39.944Z,13.98
2023-04-28T22:18:07.925Z,13.93
2023-04-28T22:20:34.628Z,13.81
2023-04-28T22:23:01.243Z,13.74
2023-04-28T22:25:27.795Z,13.66
2023-04-28T22:27:54.438Z,13.56
2023-04-28T22:30:21.464Z,13.29
2023-04-28T22:32:49.288Z,13.65
2023-04-28T22:35:16.729Z,13.35
2023-04-28T22:37:43.614Z,13.23
2023-04-28T22:40:11.445Z,13.22
2023-04-28T22:42:39.471Z,13.38
2023-04-28T22:45:06.537Z,13.37
2023-04-28T22:47:34.664Z,13.48
2023-04-28T22:50:04.163Z,13.51
2023-04-28T22:52:30.766Z,13.35
2023-04-28T22:54:57.481Z,13.10
2023-04-28T22:57:24.234Z,13.18
2023-04-28T22:59:51.111Z,13.17
2023-04-28T23:02:18.070Z,12.93
2023-04-28T23:04:44.764Z,13.16
2023-04-28T23:07:11.377Z,13.11
2023-04-28T23:09:37.944Z,13.15
2023-04-28T23:12:04.839Z,13.14
2023-04-28T23:14:32.233Z,13.04
2023-04-28T23:16:59.050Z,13.25
2023-04-28T23:19:26.007Z,13.08
2023-04-28T23:21:52.691Z,13.11
2023-04-28T23:24:19.261Z,12.93
2023-04-28T23:26:45.864Z,13.11
2023-04-28T23:29:12.380Z,13.16
2023-04-28T23:31:39.724Z,13.27
2023-04-28T23:34:06.566Z,12.80
2023-04-28T23:36:33.121Z,13.16
2023-04-28T23:38:59.670Z,12.88
2023-04-28T23:41:27.037Z,12.75
2023-04-28T23:43:53.701Z,12.83
2023-04-28T23:46:20.481Z,12.86
2023-04-28T23:48:47.303Z,12.84
2023-04-28T23:51:13.803Z,12.76
2023-04-28T23:53:40.775Z,12.72
2023-04-28T23:56:07.441Z,12.69
2023-04-28T23:58:33.989Z,12.50
